createdAt,value
2023-02-03T00:00:53.696Z,89.24
2023-02-03T00:03:23.035Z,89.13
2023-02-03T00:05:52.693Z,89.13
2023-02-03T00:08:22.725Z,89.06
2023-02-03T00:10:51.919Z,88.96
2023-02-03T00:13:21.422Z,88.60
2023-02-03T00:15:50.773Z,88.38
2023-02-03T00:18:20.017Z,87.93
2023-02-03T00:20:49.633Z,87.79
2023-02-03T00:23:18.857Z,87.40
2023-02-03T00:25:48.771Z,87.05
2023-02-03T00:28:18.052Z,87.45
2023-02-03T00:30:47.624Z,86.79
2023-02-03T00:33:16.811Z,86.29
2023-02-03T00:35:46.118Z,86.17
2023-02-03T00:38:15.345Z,85.79
2023-02-03T00:40:46.601Z,85.64
2023-02-03T00:43:15.784Z,85.46
2023-02-03T00:45:45.743Z,85.59
2023-02-03T00:48:15.347Z,85.32
2023-02-03T00:50:48.152Z,85.41
2023-02-03T00:53:17.437Z,85.36
2023-02-03T00:55:46.767Z,85.27
2023-02-03T00:58:15.978Z,85.00
2023-02-03T01:00:45.463Z,84.58
2023-02-03T01:03:14.987Z,84.96
2023-02-03T01:05:44.761Z,84.87
2023-02-03T01:08:14.931Z,84.86
2023-02-03T01:10:44.587Z,84.82
2023-02-03T01:13:13.869Z,84.47
2023-02-03T01:15:49.853Z,84.60
2023-02-03T01:18:20.691Z,84.73
2023-02-03T01:20:49.925Z,84.20
2023-02-03T01:23:19.109Z,84.79
2023-02-03T01:25:48.557Z,84.31
2023-02-03T01:28:17.817Z,83.98
2023-02-03T01:30:47.967Z,84.13
2023-02-03T01:33:17.252Z,84.41
2023-02-03T01:35:46.564Z,84.36
2023-02-03T01:38:15.738Z,84.35
2023-02-03T01:40:45.613Z,84.25
2023-02-03T01:43:18.574Z,84.20
2023-02-03T01:45:48.330Z,84.25
2023-02-03T01:48:18.250Z,83.75
2023-02-03T01:50:47.763Z,83.91
2023-02-03T01:53:17.114Z,84.03
2023-02-03T01:55:48.657Z,84.08
2023-02-03T01:58:27.997Z,84.09
2023-02-03T02:00:58.968Z,83.95
2023-02-03T02:03:31.431Z,83.57
2023-02-03T02:06:03.961Z,83.85
2023-02-03T02:08:33.858Z,83.98
2023-02-03T02:11:03.706Z,83.95
2023-02-03T02:13:36.133Z,84.22
2023-02-03T02:16:28.952Z,84.30
2023-02-03T02:19:10.635Z,84.69
2023-02-03T02:22:07.170Z,84.83
2023-02-03T02:24:48.551Z,84.80
2023-02-03T02:27:47.488Z,84.65
2023-02-03T02:30:19.972Z,84.96
2023-02-03T02:33:15.998Z,84.58
2023-02-03T02:36:00.311Z,84.30
2023-02-03T02:38:47.841Z,84.34
2023-02-03T02:41:23.770Z,84.18
2023-02-03T02:44:00.045Z,84.02
2023-02-03T02:46:40.504Z,84.07
2023-02-03T02:49:16.062Z,84.12
2023-02-03T02:51:45.660Z,84.12
2023-02-03T02:54:17.622Z,84.21
2023-02-03T02:56:49.506Z,84.21
2023-02-03T02:59:19.311Z,84.34
2023-02-03T03:01:48.531Z,84.28
2023-02-03T03:04:20.997Z,84.00
2023-02-03T03:06:53.440Z,84.24
2023-02-03T03:09:26.331Z,84.35
2023-02-03T03:11:58.829Z,84.41
2023-02-03T03:14:30.301Z,85.03
2023-02-03T03:17:01.607Z,85.12
2023-02-03T03:19:34.183Z,85.05
2023-02-03T03:22:03.538Z,85.06
2023-02-03T03:24:35.847Z,85.37
2023-02-03T03:27:25.641Z,85.26
2023-02-03T03:30:00.867Z,84.97
2023-02-03T03:32:32.380Z,85.46
2023-02-03T03:35:03.427Z,85.31
2023-02-03T03:37:45.000Z,85.51
2023-02-03T03:40:23.167Z,85.48
2023-02-03T03:42:55.550Z,85.16
2023-02-03T03:45:28.278Z,85.01
2023-02-03T03:48:06.534Z,85.36
2023-02-03T03:50:44.799Z,85.26
2023-02-03T03:53:14.781Z,85.64
2023-02-03T03:55:46.880Z,85.16
2023-02-03T03:58:19.260Z,85.25
2023-02-03T04:00:49.655Z,85.05
2023-02-03T04:03:24.681Z,84.91
2023-02-03T04:05:55.142Z,84.85
2023-02-03T04:08:24.334Z,84.81
2023-02-03T04:10:53.655Z,85.07
2023-02-03T04:13:22.899Z,84.91
2023-02-03T04:15:52.447Z,84.94
2023-02-03T04:18:21.700Z,84.53
2023-02-03T04:20:51.383Z,84.81
2023-02-03T04:23:20.646Z,84.89
2023-02-03T04:25:50.189Z,84.90
2023-02-03T04:28:19.781Z,85.25
2023-02-03T04:30:49.286Z,85.02
2023-02-03T04:33:18.892Z,84.69
2023-02-03T04:35:48.353Z,84.71
2023-02-03T04:38:17.838Z,84.94
2023-02-03T04:40:48.086Z,84.66
2023-02-03T04:43:17.746Z,84.51
2023-02-03T04:45:47.213Z,84.48
2023-02-03T04:48:16.469Z,84.87
2023-02-03T04:50:46.148Z,84.81
2023-02-03T04:53:16.115Z,84.64
2023-02-03T04:55:51.760Z,84.73
2023-02-03T04:58:20.989Z,84.76
2023-02-03T05:00:50.350Z,84.65
2023-02-03T05:03:20.002Z,85.07
2023-02-03T05:05:50.951Z,84.96
2023-02-03T05:08:20.163Z,85.12
2023-02-03T05:10:49.368Z,84.85
2023-02-03T05:13:18.917Z,84.88
2023-02-03T05:15:48.225Z,85.12
2023-02-03T05:18:17.467Z,85.15
2023-02-03T05:20:46.650Z,85.24
2023-02-03T05:23:16.265Z,85.59
2023-02-03T05:25:45.894Z,85.44
2023-02-03T05:28:15.264Z,85.44
2023-02-03T05:30:44.581Z,85.69
2023-02-03T05:33:13.779Z,85.65
2023-02-03T05:35:42.971Z,85.83
2023-02-03T05:38:12.509Z,85.96
2023-02-03T05:40:59.770Z,85.84
2023-02-03T05:43:29.666Z,86.14
2023-02-03T05:46:01.779Z,86.11
2023-02-03T05:48:31.206Z,86.36
2023-02-03T05:51:00.879Z,86.42
2023-02-03T05:53:30.241Z,86.53
2023-02-03T05:55:59.448Z,86.39
2023-02-03T05:58:28.691Z,86.43
2023-02-03T06:00:57.872Z,86.36
2023-02-03T06:03:27.317Z,86.40
2023-02-03T06:05:56.812Z,86.64
2023-02-03T06:08:27.695Z,86.52
2023-02-03T06:11:02.214Z,86.61
2023-02-03T06:13:31.553Z,86.76
2023-02-03T06:16:01.035Z,86.94
2023-02-03T06:18:30.510Z,86.88
2023-02-03T06:20:59.734Z,86.68
2023-02-03T06:23:29.270Z,86.78
2023-02-03T06:26:00.601Z,86.66
2023-02-03T06:28:30.312Z,86.88
2023-02-03T06:30:59.669Z,86.93
2023-02-03T06:33:29.021Z,87.09
2023-02-03T06:35:58.615Z,87.10
2023-02-03T06:38:27.880Z,87.18
2023-02-03T06:40:57.437Z,87.19
2023-02-03T06:43:26.610Z,87.36
2023-02-03T06:45:56.324Z,87.40
2023-02-03T06:48:25.806Z,87.53
2023-02-03T06:50:55.898Z,87.54
2023-02-03T06:53:25.402Z,87.82
2023-02-03T06:55:54.612Z,87.85
2023-02-03T06:58:23.838Z,87.89
2023-02-03T07:00:57.443Z,87.88
2023-02-03T07:03:26.717Z,88.09
2023-02-03T07:05:56.237Z,88.26
2023-02-03T07:08:27.409Z,88.26
2023-02-03T07:10:57.337Z,88.23
2023-02-03T07:13:26.839Z,88.29
2023-02-03T07:15:56.098Z,88.24
2023-02-03T07:20:59.031Z,88.15
2023-02-03T07:23:28.664Z,88.22
2023-02-03T07:26:02.950Z,88.08
2023-02-03T07:28:33.534Z,87.93
2023-02-03T07:31:04.832Z,88.22
2023-02-03T07:33:34.155Z,88.28
2023-02-03T07:36:04.629Z,88.33
2023-02-03T07:38:34.242Z,88.49
2023-02-03T07:41:03.504Z,88.68
2023-02-03T07:43:32.879Z,88.41
2023-02-03T07:46:02.400Z,88.50
2023-02-03T07:48:31.652Z,88.43
2023-02-03T07:51:01.164Z,88.67
2023-02-03T07:53:30.384Z,88.86
2023-02-03T07:56:03.716Z,88.70
2023-02-03T07:58:33.280Z,88.77
2023-02-03T08:01:02.770Z,88.87
2023-02-03T08:03:31.965Z,88.73
2023-02-03T08:06:01.640Z,88.92
2023-02-03T08:08:31.698Z,88.64
2023-02-03T08:11:01.100Z,88.79
2023-02-03T08:13:30.533Z,88.87
2023-02-03T08:16:00.233Z,88.78
2023-02-03T08:18:32.563Z,89.00
2023-02-03T08:21:02.600Z,88.96
2023-02-03T08:23:32.366Z,88.90
2023-02-03T08:26:02.392Z,88.94
2023-02-03T08:28:31.616Z,89.19
2023-02-03T08:31:01.164Z,88.91
2023-02-03T08:33:30.530Z,88.98
2023-02-03T08:36:00.997Z,89.05
2023-02-03T08:38:30.284Z,89.07
2023-02-03T08:41:00.257Z,88.92
2023-02-03T08:43:29.572Z,88.88
2023-02-03T08:46:02.424Z,88.58
2023-02-03T08:48:31.645Z,88.52
2023-02-03T08:51:01.259Z,88.39
2023-02-03T08:53:30.499Z,88.47
2023-02-03T08:55:59.985Z,88.38
2023-02-03T08:58:29.218Z,88.00
2023-02-03T09:01:08.906Z,88.11
2023-02-03T09:03:38.835Z,88.09
2023-02-03T09:06:09.283Z,88.07
2023-02-03T09:08:38.637Z,87.80
2023-02-03T09:11:16.784Z,87.81
2023-02-03T09:13:46.315Z,87.61
2023-02-03T09:16:17.494Z,87.54
2023-02-03T09:18:47.697Z,87.26
2023-02-03T09:21:32.074Z,87.06
2023-02-03T09:23:49.210Z,86.84
2023-02-03T09:26:18.904Z,86.55
2023-02-03T09:28:48.546Z,86.49
2023-02-03T09:31:17.964Z,86.46
2023-02-03T09:33:47.896Z,86.12
2023-02-03T09:36:17.708Z,86.17
2023-02-03T09:38:46.909Z,85.97
2023-02-03T09:41:35.726Z,85.92
2023-02-03T09:44:11.127Z,85.98
2023-02-03T09:46:45.763Z,85.87
2023-02-03T09:49:26.711Z,85.62
2023-02-03T09:52:07.800Z,85.54
2023-02-03T09:54:41.982Z,85.15
2023-02-03T09:57:17.203Z,85.23
2023-02-03T09:59:46.514Z,85.11
2023-02-03T10:02:24.839Z,85.03
2023-02-03T10:05:18.363Z,85.09
2023-02-03T10:08:24.631Z,85.14
2023-02-03T10:11:11.679Z,85.06
2023-02-03T10:13:56.030Z,84.73
2023-02-03T10:16:39.965Z,84.62
2023-02-03T10:19:12.955Z,84.77
2023-02-03T10:21:45.024Z,84.68
2023-02-03T10:24:18.874Z,84.50
2023-02-03T10:26:48.303Z,84.52
2023-02-03T10:29:24.105Z,84.48
2023-02-03T10:31:58.612Z,84.51
2023-02-03T10:34:28.255Z,84.00
2023-02-03T10:36:59.786Z,83.89
2023-02-03T10:39:35.058Z,83.78
2023-02-03T10:42:06.707Z,83.80
2023-02-03T10:44:40.802Z,83.61
2023-02-03T10:47:35.963Z,83.71
2023-02-03T10:50:08.291Z,83.63
2023-02-03T10:52:37.933Z,83.37
2023-02-03T10:55:09.843Z,83.25
2023-02-03T10:57:40.157Z,82.69
2023-02-03T11:00:24.529Z,83.21
2023-02-03T11:03:15.548Z,83.23
2023-02-03T11:05:44.981Z,83.12
2023-02-03T11:08:17.885Z,82.82
2023-02-03T11:10:47.502Z,83.00
2023-02-03T11:13:23.015Z,82.52
2023-02-03T11:16:10.503Z,81.96
2023-02-03T11:18:54.457Z,81.82
2023-02-03T11:21:26.584Z,81.93
2023-02-03T11:23:59.111Z,82.57
2023-02-03T11:26:29.524Z,82.21
2023-02-03T11:29:00.508Z,82.37
2023-02-03T11:31:32.604Z,82.59
2023-02-03T11:34:07.390Z,81.48
2023-02-03T11:36:37.491Z,81.80
2023-02-03T11:39:18.690Z,81.58
2023-02-03T11:41:49.357Z,81.43
2023-02-03T11:44:25.892Z,81.31
2023-02-03T11:46:58.343Z,81.72
2023-02-03T11:49:45.801Z,82.00
2023-02-03T11:52:30.475Z,81.41
2023-02-03T11:55:24.375Z,81.54
2023-02-03T11:58:23.425Z,81.39
2023-02-03T12:00:58.492Z,81.42
2023-02-03T12:03:48.020Z,81.12
2023-02-03T12:06:32.037Z,81.76
2023-02-03T12:09:16.553Z,81.99
2023-02-03T12:12:11.604Z,82.23
2023-02-03T12:14:55.334Z,82.63
2023-02-03T12:17:50.173Z,83.10
2023-02-03T12:20:31.639Z,82.61
2023-02-03T12:23:26.282Z,82.59
2023-02-03T12:26:10.509Z,82.91
2023-02-03T12:28:48.618Z,83.31
2023-02-03T12:31:30.365Z,82.88
2023-02-03T12:34:08.893Z,83.15
2023-02-03T12:36:41.764Z,82.87
2023-02-03T12:39:17.105Z,83.42
2023-02-03T12:41:52.644Z,83.72
2023-02-03T12:44:34.115Z,83.45
2023-02-03T12:47:25.217Z,83.43
2023-02-03T12:49:57.804Z,83.59
2023-02-03T12:52:31.365Z,83.36
2023-02-03T12:55:15.881Z,83.28
2023-02-03T12:57:48.727Z,83.30
2023-02-03T13:00:27.243Z,83.70
2023-02-03T13:03:09.098Z,83.81
2023-02-03T13:06:00.965Z,83.76
2023-02-03T13:08:42.269Z,84.01
2023-02-03T13:11:31.629Z,83.71
2023-02-03T13:14:07.262Z,83.37
2023-02-03T13:16:40.099Z,83.05
2023-02-03T13:19:13.468Z,83.73
2023-02-03T13:21:42.705Z,83.00
2023-02-03T13:24:13.583Z,83.57
2023-02-03T13:27:02.970Z,83.19
2023-02-03T13:29:41.369Z,83.04
2023-02-03T13:32:22.604Z,83.46
2023-02-03T13:35:12.907Z,83.61
2023-02-03T13:37:54.919Z,83.94
2023-02-03T13:40:33.383Z,83.40
2023-02-03T13:43:06.504Z,83.75
2023-02-03T13:45:42.300Z,83.42
2023-02-03T13:48:19.367Z,83.65
2023-02-03T13:50:52.172Z,83.70
2023-02-03T13:53:27.021Z,83.78
2023-02-03T13:56:01.459Z,83.95
2023-02-03T13:58:38.948Z,84.11
2023-02-03T14:01:28.056Z,83.76
2023-02-03T14:03:58.762Z,83.74
2023-02-03T14:06:45.495Z,83.83
2023-02-03T14:09:35.650Z,83.96
2023-02-03T14:12:19.175Z,83.94
2023-02-03T14:14:54.868Z,84.19
2023-02-03T14:17:45.414Z,83.94
2023-02-03T14:20:31.591Z,84.20
2023-02-03T14:23:09.476Z,84.67
2023-02-03T14:25:47.663Z,85.57
2023-02-03T14:28:23.042Z,86.04
2023-02-03T14:31:12.843Z,86.00
2023-02-03T14:33:51.307Z,85.52
2023-02-03T14:36:41.892Z,85.63
2023-02-03T14:39:23.049Z,85.40
2023-02-03T14:42:10.405Z,85.22
2023-02-03T14:44:48.684Z,85.07
2023-02-03T14:47:45.245Z,85.05
2023-02-03T14:50:43.350Z,84.98
2023-02-03T14:53:19.250Z,85.04
2023-02-03T14:56:12.813Z,85.01
2023-02-03T14:58:45.461Z,85.06
2023-02-03T15:01:39.481Z,85.12
2023-02-03T15:04:17.898Z,85.09
2023-02-03T15:06:49.419Z,85.63
2023-02-03T15:09:40.174Z,85.60
2023-02-03T15:12:20.628Z,85.78
2023-02-03T15:14:49.993Z,85.85
2023-02-03T15:17:30.704Z,86.15
2023-02-03T15:20:00.253Z,86.13
2023-02-03T15:22:31.524Z,86.08
2023-02-03T15:25:04.229Z,85.82
2023-02-03T15:27:34.251Z,86.08
2023-02-03T15:30:18.767Z,86.26
2023-02-03T15:32:51.161Z,86.58
2023-02-03T15:35:21.529Z,86.77
2023-02-03T15:37:53.942Z,86.79
2023-02-03T15:40:24.787Z,86.80
2023-02-03T15:43:12.466Z,86.87
2023-02-03T15:46:00.689Z,87.30
2023-02-03T15:48:52.173Z,87.39
2023-02-03T15:51:27.124Z,87.81
2023-02-03T15:54:01.991Z,87.91
2023-02-03T15:56:47.772Z,87.72
2023-02-03T15:59:25.688Z,87.72
2023-02-03T16:01:56.116Z,87.60
2023-02-03T16:04:27.111Z,87.31
2023-02-03T16:06:57.702Z,87.40
2023-02-03T16:09:41.481Z,87.62
2023-02-03T16:12:31.340Z,87.81
2023-02-03T16:15:01.928Z,88.01
2023-02-03T16:17:39.392Z,87.64
2023-02-03T16:20:20.770Z,87.20
2023-02-03T16:23:08.143Z,86.89
2023-02-03T16:25:37.627Z,86.31
2023-02-03T16:28:35.578Z,86.50
2023-02-03T16:31:39.424Z,86.64
2023-02-03T16:34:35.615Z,86.51
2023-02-03T16:37:45.414Z,87.05
2023-02-03T16:40:35.445Z,87.50
2023-02-03T16:43:23.325Z,88.22
2023-02-03T16:46:15.098Z,88.33
2023-02-03T16:49:02.379Z,88.65
2023-02-03T16:51:40.205Z,88.60
2023-02-03T16:54:15.182Z,88.51
2023-02-03T16:56:44.639Z,88.44
2023-02-03T16:59:13.963Z,88.57
2023-02-03T17:01:43.237Z,88.53
2023-02-03T17:04:12.517Z,88.86
2023-02-03T17:06:44.231Z,88.68
2023-02-03T17:09:13.887Z,88.53
2023-02-03T17:11:52.710Z,88.75
2023-02-03T17:14:22.027Z,88.48
2023-02-03T17:16:51.583Z,88.75
2023-02-03T17:19:21.251Z,88.81
2023-02-03T17:21:51.522Z,88.66
2023-02-03T17:24:20.909Z,88.83
2023-02-03T17:26:50.783Z,89.00
2023-02-03T17:29:19.991Z,89.07
2023-02-03T17:31:49.532Z,89.39
2023-02-03T17:34:19.084Z,89.33
2023-02-03T17:36:48.858Z,89.73
2023-02-03T17:53:32.299Z,89.87
2023-02-03T17:56:18.055Z,89.70
2023-02-03T17:58:47.688Z,89.83
2023-02-03T18:01:20.854Z,89.79
2023-02-03T18:03:52.296Z,89.76
2023-02-03T18:06:23.094Z,89.57
2023-02-03T18:08:52.872Z,89.42
2023-02-03T18:11:22.434Z,88.93
2023-02-03T18:13:51.683Z,88.62
2023-02-03T18:16:25.235Z,88.15
2023-02-03T18:18:56.070Z,87.95
2023-02-03T18:21:26.395Z,87.63
2023-02-03T18:23:57.858Z,87.49
2023-02-03T18:26:29.361Z,87.37
2023-02-03T18:28:58.932Z,87.80
2023-02-03T18:31:29.017Z,87.83
2023-02-03T18:34:03.735Z,87.22
2023-02-03T18:36:33.626Z,87.18
2023-02-03T18:39:02.980Z,87.06
2023-02-03T18:41:32.267Z,86.90
2023-02-03T18:44:01.962Z,86.76
2023-02-03T18:46:32.869Z,86.38
2023-02-03T18:49:02.449Z,86.12
2023-02-03T18:51:31.653Z,86.29
2023-02-03T18:54:01.604Z,86.06
2023-02-03T18:56:35.871Z,86.01
2023-02-03T18:59:15.014Z,84.45
2023-02-03T19:01:46.582Z,82.81
2023-02-03T19:04:16.001Z,81.60
2023-02-03T19:06:45.902Z,81.66
2023-02-03T19:09:18.122Z,80.94
2023-02-03T19:11:47.706Z,80.94
2023-02-03T19:14:17.184Z,81.22
2023-02-03T19:16:46.493Z,80.43
2023-02-03T19:19:15.811Z,81.04
2023-02-03T19:21:45.235Z,81.06
2023-02-03T19:24:15.003Z,80.89
2023-02-03T19:26:44.425Z,81.14
2023-02-03T19:29:13.840Z,81.21
2023-02-03T19:31:43.579Z,81.10
2023-02-03T19:34:17.355Z,81.34
2023-02-03T19:36:48.523Z,81.44
2023-02-03T19:39:18.801Z,81.44
2023-02-03T19:41:48.595Z,81.50
2023-02-03T19:44:17.984Z,81.87
2023-02-03T19:46:47.782Z,83.04
2023-02-03T19:49:17.365Z,84.31
2023-02-03T19:51:46.727Z,86.42
2023-02-03T19:54:17.537Z,87.40
2023-02-03T19:56:47.173Z,88.97
2023-02-03T19:59:16.760Z,89.54
2023-02-03T20:01:46.476Z,89.40
2023-02-03T20:04:16.166Z,88.70
2023-02-03T20:06:45.669Z,88.70
2023-02-03T20:09:16.025Z,87.17
2023-02-03T20:11:45.372Z,87.08
2023-02-03T20:14:16.898Z,87.14
2023-02-03T20:16:48.051Z,87.87
2023-02-03T20:19:18.900Z,88.50
2023-02-03T20:21:48.200Z,89.53
2023-02-03T20:24:17.920Z,90.67
2023-02-03T20:26:47.307Z,91.37
2023-02-03T20:29:16.812Z,91.77
2023-02-03T20:31:46.561Z,92.50
2023-02-03T20:34:16.088Z,92.73
2023-02-03T20:36:45.629Z,92.83
2023-02-03T20:39:20.849Z,92.97
2023-02-03T20:41:50.125Z,93.25
2023-02-03T20:44:19.856Z,93.48
2023-02-03T20:46:49.595Z,93.01
2023-02-03T20:49:20.033Z,91.85
2023-02-03T20:51:49.492Z,91.96
2023-02-03T20:54:21.462Z,90.87
2023-02-03T20:56:50.825Z,90.25
2023-02-03T20:59:21.154Z,90.73
2023-02-03T21:01:50.837Z,90.38
2023-02-03T21:04:37.413Z,90.18
2023-02-03T21:07:16.489Z,89.91
2023-02-03T21:09:46.221Z,90.07
2023-02-03T21:12:16.477Z,89.70
2023-02-03T21:14:49.734Z,90.91
2023-02-03T21:17:24.753Z,90.72
2023-02-03T21:19:55.134Z,90.88
2023-02-03T21:22:27.041Z,90.57
2023-02-03T21:29:43.590Z,91.19
2023-02-03T21:32:15.007Z,91.48
2023-02-03T21:34:45.444Z,91.85
2023-02-03T21:37:30.287Z,92.32
2023-02-03T21:39:59.949Z,92.90
2023-02-03T21:42:41.493Z,92.75
2023-02-03T21:45:20.546Z,93.16
2023-02-03T21:47:53.738Z,93.19
2023-02-03T21:50:35.032Z,93.30
2023-02-03T21:53:10.267Z,93.83
2023-02-03T21:55:41.457Z,93.93
2023-02-03T21:58:31.179Z,93.99
2023-02-03T22:01:02.735Z,94.48
2023-02-03T22:03:46.380Z,95.03
2023-02-03T22:06:20.514Z,95.39
2023-02-03T22:08:53.545Z,95.21
2023-02-03T22:11:25.242Z,95.96
2023-02-03T22:13:55.061Z,96.25
2023-02-03T22:16:24.450Z,96.43
2023-02-03T22:18:55.259Z,96.76
2023-02-03T22:21:25.492Z,96.99
2023-02-03T22:24:00.160Z,97.32
2023-02-03T22:26:53.266Z,97.55
2023-02-03T22:29:24.537Z,97.82
2023-02-03T22:31:54.256Z,98.09
2023-02-03T22:34:25.611Z,98.24
2023-02-03T22:36:55.160Z,98.46
2023-02-03T22:39:30.427Z,98.56
2023-02-03T22:42:14.407Z,98.54
2023-02-03T22:44:48.912Z,98.52
2023-02-03T22:47:26.433Z,98.76
2023-02-03T22:49:56.072Z,98.85
2023-02-03T22:52:25.483Z,98.87
2023-02-03T22:54:56.612Z,98.83
2023-02-03T22:57:26.024Z,98.79
2023-02-03T22:59:55.509Z,98.94
2023-02-03T23:02:24.733Z,98.86
2023-02-03T23:04:55.085Z,98.92
2023-02-03T23:07:24.355Z,99.05
2023-02-03T23:09:53.617Z,99.07
2023-02-03T23:12:22.849Z,99.23
2023-02-03T23:14:52.310Z,99.41
2023-02-03T23:17:21.568Z,99.62
2023-02-03T23:19:51.109Z,99.75
2023-02-03T23:22:20.375Z,99.77
2023-02-03T23:24:49.857Z,99.88
2023-02-03T23:27:19.188Z,99.99
2023-02-03T23:29:48.606Z,100.00
2023-02-03T23:32:17.919Z,100.00
2023-02-03T23:35:04.685Z,100.00
2023-02-03T23:37:34.298Z,99.91
2023-02-03T23:40:04.872Z,99.88
2023-02-03T23:42:34.365Z,99.92
2023-02-03T23:45:05.808Z,99.66
2023-02-03T23:47:35.832Z,99.61
2023-02-03T23:50:06.054Z,99.65
2023-02-03T23:52:35.938Z,99.44
2023-02-03T23:55:07.648Z,99.38
2023-02-03T23:57:36.970Z,99.45
